Time;durP1;ratioP1;P1;durP2;ratioP2;P2;SDS_P1;SDS_P2;PMS_P1;PMS_P2;Temp;Humidity;BMP_temperature;BMP_pressure;BME280_temperature;BME280_humidity;BME280_pressure;Samples;Min_cycle;Max_cycle;Signal;HPM_P1;HPM_P2
2023/12/12 00:01:55;;;;;;;9.23;8.38;;;5.50;99.90;;;;;;4965946;28;20385;-74
2023/12/12 00:04:20;;;;;;;10.38;8.82;;;5.50;99.90;;;;;;4965445;28;20030;-74
2023/12/12 00:06:46;;;;;;;9.70;8.82;;;5.50;99.90;;;;;;4966383;28;20026;-74
2023/12/12 00:09:12;;;;;;;9.40;8.48;;;5.60;99.90;;;;;;4967170;28;20106;-74
2023/12/12 00:11:37;;;;;;;9.60;8.70;;;5.50;99.90;;;;;;4948668;28;20023;-74
2023/12/12 00:14:03;;;;;;;8.27;7.57;;;5.50;99.90;;;;;;4963082;28;20058;-74
2023/12/12 00:16:29;;;;;;;9.25;8.52;;;5.50;99.90;;;;;;4965957;28;20396;-74
2023/12/12 00:18:54;;;;;;;8.20;7.50;;;5.50;99.90;;;;;;4962584;28;20501;-74
2023/12/12 00:21:20;;;;;;;9.35;7.68;;;5.50;99.90;;;;;;4966162;28;20033;-74
2023/12/12 00:23:46;;;;;;;8.52;7.72;;;5.50;99.90;;;;;;4962643;28;20042;-74
2023/12/12 00:26:12;;;;;;;8.25;7.45;;;5.50;99.90;;;;;;4964923;28;20465;-74
2023/12/12 00:28:39;;;;;;;8.00;7.40;;;5.50;99.90;;;;;;4970788;28;20045;-73
2023/12/12 00:31:05;;;;;;;9.15;7.63;;;5.50;99.90;;;;;;4964512;28;20394;-74
2023/12/12 00:33:31;;;;;;;7.90;7.20;;;5.60;99.90;;;;;;4967140;28;20141;-74
2023/12/12 00:36:00;;;;;;;8.63;7.88;;;5.50;99.90;;;;;;4965134;28;20109;-74
2023/12/12 00:38:29;;;;;;;8.50;7.60;;;5.50;99.90;;;;;;4947469;28;20166;-74
2023/12/12 00:40:55;;;;;;;8.75;8.02;;;5.50;99.90;;;;;;4963246;28;20035;-74
2023/12/12 00:43:23;;;;;;;8.52;7.93;;;5.50;99.90;;;;;;4967263;28;20030;-74
2023/12/12 00:45:48;;;;;;;8.00;7.40;;;5.50;99.90;;;;;;4961890;28;20508;-74
2023/12/12 00:48:14;;;;;;;8.77;7.97;;;5.50;99.90;;;;;;4964763;28;20050;-74
2023/12/12 00:50:40;;;;;;;8.13;7.20;;;5.50;99.90;;;;;;4945367;28;20077;-74
2023/12/12 00:53:06;;;;;;;8.35;7.55;;;5.50;99.90;;;;;;4968194;28;20030;-73
2023/12/12 00:55:31;;;;;;;8.35;7.68;;;5.50;99.90;;;;;;4963733;28;20453;-74
2023/12/12 00:57:57;;;;;;;8.75;8.05;;;5.50;99.90;;;;;;4968540;28;20195;-74
2023/12/12 01:00:23;;;;;;;8.45;7.65;;;5.50;99.90;;;;;;4965065;28;20038;-74
2023/12/12 01:02:49;;;;;;;8.35;7.38;;;5.50;99.90;;;;;;4965915;28;20102;-74
2023/12/12 01:05:15;;;;;;;7.68;7.03;;;5.50;99.90;;;;;;4964063;28;20035;-74
2023/12/12 01:07:41;;;;;;;8.35;7.55;;;5.50;99.90;;;;;;4962692;28;20095;-74
2023/12/12 01:10:07;;;;;;;8.48;7.65;;;5.50;99.90;;;;;;4967291;28;20027;-74
2023/12/12 01:12:33;;;;;;;8.35;7.55;;;5.50;99.90;;;;;;4967706;28;20050;-74
2023/12/12 01:14:59;;;;;;;7.85;7.25;;;5.50;99.90;;;;;;4962205;28;20035;-74
2023/12/12 01:17:26;;;;;;;8.98;8.13;;;5.50;99.90;;;;;;4968589;28;20201;-74
2023/12/12 01:19:52;;;;;;;8.93;8.05;;;5.50;99.90;;;;;;4949685;28;20026;-74
2023/12/12 01:22:17;;;;;;;7.68;7.10;;;5.50;99.90;;;;;;4948004;28;20031;-74
2023/12/12 01:24:43;;;;;;;7.28;6.68;;;5.50;99.90;;;;;;4954865;28;20481;-74
2023/12/12 01:27:09;;;;;;;8.43;7.13;;;5.60;99.90;;;;;;4965918;28;20039;-74
2023/12/12 01:29:35;;;;;;;8.95;7.13;;;5.50;99.90;;;;;;4966616;28;20035;-74
2023/12/12 01:32:01;;;;;;;8.27;7.53;;;5.60;99.90;;;;;;4965031;28;20027;-74
2023/12/12 01:34:27;;;;;;;7.65;6.95;;;5.50;99.90;;;;;;4963742;28;20027;-74
2023/12/12 01:36:52;;;;;;;12.40;6.97;;;5.50;99.90;;;;;;4966571;28;20057;-74
2023/12/12 01:39:18;;;;;;;7.53;6.82;;;5.50;99.90;;;;;;4965393;28;20034;-73
2023/12/12 01:41:48;;;;;;;8.82;8.00;;;5.50;99.90;;;;;;4965651;28;20034;-74
2023/12/12 01:44:14;;;;;;;10.20;7.90;;;5.50;99.90;;;;;;4950908;28;20031;-73
2023/12/12 01:46:41;;;;;;;7.63;7.07;;;5.50;99.90;;;;;;4951008;28;20682;-74
2023/12/12 01:49:08;;;;;;;8.55;7.72;;;5.50;99.90;;;;;;4969364;28;20098;-73
2023/12/12 01:51:34;;;;;;;8.75;6.95;;;5.40;99.90;;;;;;4959859;28;20120;-74
2023/12/12 01:54:01;;;;;;;8.20;7.50;;;5.40;99.90;;;;;;4974736;28;20023;-74
2023/12/12 01:56:29;;;;;;;9.50;7.47;;;5.40;99.90;;;;;;4969497;28;20050;-74
2023/12/12 01:58:56;;;;;;;8.25;7.57;;;5.40;99.90;;;;;;4971393;28;20055;-74
2023/12/12 02:01:22;;;;;;;8.25;7.65;;;5.40;99.90;;;;;;4968548;28;20035;-74
2023/12/12 02:03:49;;;;;;;8.68;7.97;;;5.50;99.90;;;;;;4967911;28;20071;-74
2023/12/12 02:06:22;;;;;;;10.10;9.10;;;5.50;99.90;;;;;;4968029;28;20117;-73
2023/12/12 02:08:49;;;;;;;8.20;7.45;;;5.50;99.90;;;;;;4952021;28;20023;-74
2023/12/12 02:11:15;;;;;;;8.52;7.47;;;5.50;99.90;;;;;;4954653;28;20022;-74
2023/12/12 02:13:41;;;;;;;9.35;8.10;;;5.50;99.90;;;;;;4975746;28;20102;-74
2023/12/12 02:16:08;;;;;;;11.45;8.25;;;5.50;99.90;;;;;;4967462;28;20117;-74
2023/12/12 02:18:34;;;;;;;8.82;7.85;;;5.50;99.90;;;;;;4967508;28;20086;-74
2023/12/12 02:21:00;;;;;;;9.80;8.73;;;5.50;99.90;;;;;;4950157;28;20027;-74
2023/12/12 02:23:32;;;;;;;8.77;8.15;;;5.40;99.90;;;;;;4975670;28;20485;-74
2023/12/12 02:26:02;;;;;;;8.18;7.20;;;5.30;99.90;;;;;;4948192;28;20374;-74
2023/12/12 02:28:28;;;;;;;9.27;8.57;;;5.30;99.90;;;;;;4967563;28;20028;-74
2023/12/12 02:30:54;;;;;;;10.40;9.40;;;5.30;99.90;;;;;;4967133;28;20432;-75
2023/12/12 02:33:20;;;;;;;8.93;7.68;;;5.30;99.90;;;;;;4971798;28;20613;-74
2023/12/12 02:35:46;;;;;;;8.15;7.55;;;5.30;99.90;;;;;;4963967;28;20102;-74
2023/12/12 02:38:13;;;;;;;9.38;8.38;;;5.30;99.90;;;;;;4967743;28;20062;-74
2023/12/12 02:40:39;;;;;;;9.82;8.88;;;5.30;99.90;;;;;;4966764;28;20031;-74
2023/12/12 02:43:05;;;;;;;8.75;7.95;;;5.30;99.90;;;;;;4968600;28;20031;-74
2023/12/12 02:45:31;;;;;;;10.23;9.45;;;5.30;99.90;;;;;;4967241;28;20038;-74
2023/12/12 02:47:56;;;;;;;8.02;7.40;;;5.30;99.90;;;;;;4969284;28;20113;-74
2023/12/12 02:50:22;;;;;;;9.52;8.60;;;5.30;99.90;;;;;;4955112;28;20508;-74
2023/12/12 02:52:48;;;;;;;9.85;8.60;;;5.30;99.90;;;;;;4970130;28;20031;-74
2023/12/12 02:55:14;;;;;;;11.52;8.38;;;5.30;99.90;;;;;;4967121;28;20470;-73
2023/12/12 02:57:39;;;;;;;9.70;8.90;;;5.30;99.90;;;;;;4976248;28;20031;-74
2023/12/12 03:00:06;;;;;;;9.68;8.40;;;5.30;99.90;;;;;;4966006;28;20063;-74
2023/12/12 03:02:33;;;;;;;9.80;8.93;;;5.30;99.90;;;;;;4958525;28;20034;-74
2023/12/12 03:04:59;;;;;;;10.52;9.57;;;5.30;99.90;;;;;;4964852;28;20039;-74
2023/12/12 03:07:25;;;;;;;10.50;9.50;;;5.30;99.90;;;;;;4966671;28;20019;-74
2023/12/12 03:09:50;;;;;;;10.07;8.80;;;5.30;99.90;;;;;;4966791;28;20061;-74
2023/12/12 03:12:16;;;;;;;9.93;8.98;;;5.30;99.90;;;;;;4970483;28;20887;-74
2023/12/12 03:14:42;;;;;;;9.50;8.70;;;5.30;99.90;;;;;;4963409;28;20024;-74
2023/12/12 03:17:08;;;;;;;9.90;8.93;;;5.20;99.90;;;;;;4969200;28;20486;-74
2023/12/12 03:19:33;;;;;;;9.52;8.55;;;5.30;99.90;;;;;;4966574;28;20497;-74
2023/12/12 03:21:59;;;;;;;9.52;8.73;;;5.30;99.90;;;;;;4971053;28;20572;-74
2023/12/12 03:24:25;;;;;;;10.80;9.60;;;5.30;99.90;;;;;;4968857;28;20347;-74
2023/12/12 03:26:50;;;;;;;10.18;9.18;;;5.30;99.90;;;;;;4969858;28;20035;-74
2023/12/12 03:29:16;;;;;;;9.52;8.40;;;5.40;99.90;;;;;;4965840;28;20445;-74
2023/12/12 03:31:42;;;;;;;10.57;8.57;;;5.40;99.90;;;;;;4969571;28;20034;-74
2023/12/12 03:34:10;;;;;;;9.20;8.43;;;5.40;99.90;;;;;;4966108;28;20050;-74
2023/12/12 03:36:40;;;;;;;9.80;9.02;;;5.30;99.90;;;;;;4968677;28;20478;-74
2023/12/12 03:39:06;;;;;;;10.45;8.90;;;5.30;99.90;;;;;;4979366;28;20032;-74
2023/12/12 03:41:31;;;;;;;8.60;7.70;;;5.40;99.90;;;;;;4962167;28;20045;-74
2023/12/12 03:43:57;;;;;;;10.85;9.88;;;5.40;99.90;;;;;;4955029;28;20113;-74
2023/12/12 03:46:23;;;;;;;9.07;8.35;;;5.40;99.90;;;;;;4966714;28;20089;-74
2023/12/12 03:48:49;;;;;;;9.43;8.50;;;5.40;99.90;;;;;;4972067;28;20019;-74
2023/12/12 03:51:14;;;;;;;9.93;9.00;;;5.50;99.90;;;;;;4956843;28;20019;-74
2023/12/12 03:53:40;;;;;;;9.27;8.57;;;5.40;99.90;;;;;;4975808;28;20034;-74
2023/12/12 03:56:07;;;;;;;12.85;9.52;;;5.50;99.90;;;;;;4965032;28;20031;-74
2023/12/12 03:58:32;;;;;;;10.15;9.23;;;5.50;99.90;;;;;;4981602;28;20026;-74
2023/12/12 04:00:58;;;;;;;11.48;10.50;;;5.50;99.90;;;;;;4965327;28;20102;-74
2023/12/12 04:03:24;;;;;;;9.68;8.82;;;5.50;99.90;;;;;;4970185;28;20110;-73
2023/12/12 04:05:49;;;;;;;9.43;8.52;;;5.50;99.90;;;;;;4963947;28;20030;-74
2023/12/12 04:08:15;;;;;;;10.55;9.55;;;5.50;99.90;;;;;;4969511;28;20094;-74
2023/12/12 04:10:41;;;;;;;11.43;9.88;;;5.50;99.90;;;;;;4956504;28;20027;-74
2023/12/12 04:13:07;;;;;;;12.88;9.82;;;5.50;99.90;;;;;;4955327;28;20394;-74
2023/12/12 04:15:33;;;;;;;10.32;9.43;;;5.50;99.90;;;;;;4965881;28;20034;-74
2023/12/12 04:17:58;;;;;;;9.95;9.18;;;5.50;99.90;;;;;;4968641;28;20034;-74
2023/12/12 04:20:24;;;;;;;9.35;8.63;;;5.50;99.90;;;;;;4965345;28;20027;-74
2023/12/12 04:22:50;;;;;;;10.38;9.48;;;5.40;99.90;;;;;;4955357;28;20664;-73
2023/12/12 04:25:16;;;;;;;10.65;9.55;;;5.40;99.90;;;;;;4962476;28;20034;-74
2023/12/12 04:27:41;;;;;;;9.88;8.95;;;5.40;99.90;;;;;;4978599;28;20030;-74
2023/12/12 04:30:08;;;;;;;10.88;9.95;;;5.40;99.90;;;;;;4946557;28;20028;-74
2023/12/12 04:32:34;;;;;;;10.80;9.73;;;5.50;99.90;;;;;;4950746;28;20442;-74
2023/12/12 04:35:00;;;;;;;10.35;9.40;;;5.50;99.90;;;;;;4965779;28;20027;-74
2023/12/12 04:37:26;;;;;;;10.43;9.43;;;5.50;99.90;;;;;;4966834;28;20031;-74
2023/12/12 04:39:52;;;;;;;10.93;9.70;;;5.60;99.90;;;;;;4947393;28;20032;-74
2023/12/12 04:42:18;;;;;;;11.13;9.45;;;5.60;99.90;;;;;;4963756;28;20031;-74
2023/12/12 04:44:44;;;;;;;10.65;9.63;;;5.50;99.90;;;;;;4965363;28;20085;-74
2023/12/12 04:47:10;;;;;;;11.07;9.98;;;5.50;99.90;;;;;;4969424;28;20528;-74
2023/12/12 04:49:36;;;;;;;10.07;9.07;;;5.50;99.90;;;;;;4948073;28;20026;-74
2023/12/12 04:52:02;;;;;;;10.18;9.38;;;5.60;99.90;;;;;;4965584;28;20024;-74
2023/12/12 04:54:28;;;;;;;11.45;10.18;;;5.50;99.90;;;;;;4964377;28;20579;-74
2023/12/12 04:56:53;;;;;;;12.40;11.18;;;5.50;99.90;;;;;;4966879;28;20065;-74
2023/12/12 04:59:19;;;;;;;11.77;10.77;;;5.50;99.90;;;;;;4965605;28;20037;-74
2023/12/12 05:01:45;;;;;;;12.05;10.85;;;5.50;99.90;;;;;;4966646;28;20089;-74
2023/12/12 05:04:11;;;;;;;10.05;9.15;;;5.50;99.90;;;;;;4965010;28;20585;-74
2023/12/12 05:06:36;;;;;;;10.93;9.93;;;5.50;99.90;;;;;;4965121;28;20110;-74
2023/12/12 05:09:03;;;;;;;10.50;9.50;;;5.50;99.90;;;;;;4964862;28;20039;-73
2023/12/12 05:11:29;;;;;;;10.32;9.38;;;5.40;99.90;;;;;;4966719;28;20027;-74
2023/12/12 05:13:56;;;;;;;10.25;8.50;;;5.40;99.90;;;;;;4963101;28;20030;-75
2023/12/12 05:16:22;;;;;;;10.50;9.55;;;5.40;99.90;;;;;;4950940;28;20057;-74
2023/12/12 05:18:48;;;;;;;10.98;9.98;;;5.40;99.90;;;;;;4971857;28;20057;-74
2023/12/12 05:21:14;;;;;;;9.70;8.70;;;5.50;99.90;;;;;;4968918;28;20485;-74
2023/12/12 05:23:41;;;;;;;9.82;9.10;;;5.50;99.90;;;;;;4971142;28;20026;-74
2023/12/12 05:26:07;;;;;;;10.55;9.68;;;5.50;99.90;;;;;;4967591;28;20030;-74
2023/12/12 05:28:33;;;;;;;10.13;9.07;;;5.50;99.90;;;;;;4969671;28;20393;-74
2023/12/12 05:30:59;;;;;;;11.57;10.57;;;5.50;99.90;;;;;;4970767;28;20018;-74
2023/12/12 05:33:25;;;;;;;12.50;10.13;;;5.50;99.90;;;;;;4976316;28;20050;-74
2023/12/12 05:35:50;;;;;;;10.10;9.10;;;5.50;99.90;;;;;;4967140;28;20051;-74
2023/12/12 05:38:16;;;;;;;9.98;9.18;;;5.60;99.90;;;;;;4974120;28;20390;-74
2023/12/12 05:40:42;;;;;;;13.82;10.50;;;5.60;99.90;;;;;;4971260;28;20101;-74
2023/12/12 05:43:09;;;;;;;9.88;9.07;;;5.70;99.90;;;;;;4971351;28;20039;-74
2023/12/12 05:45:34;;;;;;;11.90;10.82;;;5.60;99.90;;;;;;4964930;28;20030;-73
2023/12/12 05:48:03;;;;;;;12.63;8.88;;;5.70;99.90;;;;;;4969496;28;20023;-74
2023/12/12 05:50:29;;;;;;;10.77;9.68;;;5.60;99.90;;;;;;4958429;28;20027;-74
2023/12/12 05:52:55;;;;;;;11.88;10.60;;;5.60;99.90;;;;;;4972355;28;20041;-73
2023/12/12 05:55:21;;;;;;;10.80;9.77;;;5.60;99.90;;;;;;4966510;28;20109;-74
2023/12/12 05:57:48;;;;;;;10.55;9.65;;;5.60;99.90;;;;;;4955139;28;20557;-73
2023/12/12 06:00:14;;;;;;;10.70;9.70;;;5.60;99.90;;;;;;4968797;28;20476;-74
2023/12/12 06:02:40;;;;;;;10.82;9.52;;;5.60;99.90;;;;;;4972507;28;20524;-74
2023/12/12 06:05:07;;;;;;;12.85;9.80;;;5.70;99.90;;;;;;4964780;28;20024;-74
2023/12/12 06:07:34;;;;;;;10.57;9.57;;;5.70;99.90;;;;;;4947117;28;20551;-74
2023/12/12 06:10:00;;;;;;;11.02;9.90;;;5.70;99.90;;;;;;4969592;28;20496;-74
2023/12/12 06:12:25;;;;;;;11.35;9.98;;;5.70;99.90;;;;;;4970909;28;20023;-74
2023/12/12 06:14:51;;;;;;;12.25;10.93;;;5.70;99.90;;;;;;4966443;28;20106;-74
2023/12/12 06:17:17;;;;;;;13.70;10.73;;;5.80;99.90;;;;;;4970268;28;20375;-74
2023/12/12 06:19:42;;;;;;;12.43;10.75;;;5.80;99.90;;;;;;4965141;28;20035;-74
2023/12/12 06:22:08;;;;;;;11.27;10.13;;;5.80;99.90;;;;;;4971417;28;20027;-74
2023/12/12 06:24:34;;;;;;;13.88;9.82;;;5.80;99.90;;;;;;4967595;28;20049;-74
2023/12/12 06:27:00;;;;;;;12.88;9.98;;;5.90;99.90;;;;;;4950392;28;20058;-74
2023/12/12 06:29:26;;;;;;;11.75;10.63;;;5.90;99.90;;;;;;4969036;28;20023;-74
2023/12/12 06:31:51;;;;;;;13.23;11.25;;;5.90;99.90;;;;;;4969665;28;20101;-74
2023/12/12 06:34:17;;;;;;;14.15;10.77;;;5.80;99.90;;;;;;4966772;28;20043;-74
2023/12/12 06:36:43;;;;;;;14.35;11.98;;;5.80;99.90;;;;;;4971286;28;20034;-74
2023/12/12 06:39:09;;;;;;;12.30;11.10;;;5.80;99.90;;;;;;4968558;28;20029;-74
2023/12/12 06:41:36;;;;;;;12.40;11.15;;;5.90;99.90;;;;;;4968787;28;20031;-74
2023/12/12 06:44:02;;;;;;;17.85;11.25;;;5.90;99.90;;;;;;4964991;28;20722;-74
2023/12/12 06:46:28;;;;;;;12.85;11.50;;;5.90;99.90;;;;;;4968682;28;20026;-74
2023/12/12 06:48:54;;;;;;;16.33;14.02;;;6.00;99.90;;;;;;4966520;28;20023;-75
2023/12/12 06:51:20;;;;;;;19.63;13.70;;;5.80;99.90;;;;;;4967515;28;20030;-74
2023/12/12 06:53:45;;;;;;;24.90;15.20;;;5.80;99.90;;;;;;4969374;28;20547;-74
2023/12/12 06:56:11;;;;;;;26.17;13.70;;;5.80;99.90;;;;;;4965546;28;20089;-74
2023/12/12 06:58:37;;;;;;;17.98;14.82;;;5.70;99.90;;;;;;4952756;28;20034;-74
2023/12/12 07:01:03;;;;;;;15.02;13.27;;;5.70;99.90;;;;;;4964798;28;20031;-74
2023/12/12 07:03:29;;;;;;;17.23;13.48;;;5.60;99.90;;;;;;4970327;28;20027;-74
2023/12/12 07:05:54;;;;;;;21.13;15.45;;;5.60;99.90;;;;;;4964275;28;20033;-74
2023/12/12 07:08:21;;;;;;;18.92;15.35;;;5.50;99.90;;;;;;4955039;28;20031;-74
2023/12/12 07:10:47;;;;;;;20.85;15.27;;;5.40;99.90;;;;;;4967563;28;20015;-74
2023/12/12 07:13:13;;;;;;;20.98;15.98;;;5.40;99.90;;;;;;4966570;28;20031;-74
2023/12/12 07:15:39;;;;;;;19.48;16.15;;;5.30;99.90;;;;;;4966113;28;20424;-74
2023/12/12 07:18:10;;;;;;;34.95;16.15;;;5.40;99.90;;;;;;4970609;28;20623;-74
2023/12/12 07:20:36;;;;;;;37.70;19.83;;;5.40;99.90;;;;;;4966555;28;20030;-74
2023/12/12 07:23:03;;;;;;;28.50;16.95;;;5.40;99.90;;;;;;4970499;28;20065;-74
2023/12/12 07:25:29;;;;;;;32.95;19.60;;;5.40;99.90;;;;;;4963275;28;20031;-74
2023/12/12 07:27:55;;;;;;;19.80;16.25;;;5.30;99.90;;;;;;4967069;28;20031;-74
2023/12/12 07:30:21;;;;;;;23.25;17.58;;;5.30;99.90;;;;;;4964221;28;20027;-74
2023/12/12 07:32:46;;;;;;;25.60;18.73;;;5.30;99.90;;;;;;4970325;28;20039;-74
2023/12/12 07:35:12;;;;;;;27.30;17.23;;;5.30;99.90;;;;;;4965230;28;20027;-74
2023/12/12 07:37:38;;;;;;;18.83;16.60;;;5.30;99.90;;;;;;4968189;28;20031;-74
2023/12/12 07:40:06;;;;;;;27.65;19.50;;;5.30;99.90;;;;;;4966187;28;20520;-74
2023/12/12 07:42:32;;;;;;;22.33;18.48;;;5.30;99.90;;;;;;4969442;28;20035;-74
2023/12/12 07:44:58;;;;;;;26.65;20.33;;;5.30;99.90;;;;;;4962905;28;20118;-74
2023/12/12 07:47:24;;;;;;;33.70;24.75;;;5.30;99.90;;;;;;4968543;28;20078;-74
2023/12/12 07:49:49;;;;;;;38.40;26.90;;;5.40;99.90;;;;;;4966622;28;20414;-74
2023/12/12 07:52:15;;;;;;;50.80;28.48;;;5.40;99.90;;;;;;4952381;28;20031;-74
2023/12/12 07:54:43;;;;;;;35.80;27.08;;;5.40;99.90;;;;;;4966677;28;20035;-74
2023/12/12 07:57:09;;;;;;;26.50;23.65;;;5.40;99.90;;;;;;4968929;28;20706;-74
2023/12/12 07:59:35;;;;;;;28.15;24.90;;;5.40;99.90;;;;;;4965719;28;20031;-74
2023/12/12 08:02:01;;;;;;;33.53;24.05;;;5.50;99.90;;;;;;4967884;28;20031;-74
2023/12/12 08:04:26;;;;;;;32.70;19.35;;;5.50;99.90;;;;;;4966341;28;20030;-74
2023/12/12 08:06:52;;;;;;;22.15;17.15;;;5.50;99.90;;;;;;4964491;28;20085;-74
2023/12/12 08:09:18;;;;;;;21.85;16.75;;;5.60;99.90;;;;;;4956506;28;20027;-74
2023/12/12 08:11:43;;;;;;;17.98;15.52;;;5.60;99.90;;;;;;4966967;28;20393;-74
2023/12/12 08:14:09;;;;;;;17.13;14.23;;;5.70;99.90;;;;;;4964467;28;20065;-74
2023/12/12 08:16:35;;;;;;;15.50;14.00;;;5.70;99.90;;;;;;4950066;28;20034;-74
2023/12/12 08:19:00;;;;;;;14.15;12.73;;;5.80;99.90;;;;;;4966183;28;20182;-74
2023/12/12 08:21:26;;;;;;;20.80;14.52;;;5.90;99.90;;;;;;4969137;28;20039;-74
2023/12/12 08:23:54;;;;;;;19.02;13.85;;;6.00;99.90;;;;;;4964536;28;20054;-74
2023/12/12 08:26:22;;;;;;;22.85;15.02;;;6.10;99.90;;;;;;4949422;28;20225;-74
2023/12/12 08:28:48;;;;;;;19.80;16.15;;;6.10;99.90;;;;;;4967133;28;20023;-74
2023/12/12 08:31:14;;;;;;;24.85;22.10;;;6.20;99.90;;;;;;4969050;28;20454;-74
2023/12/12 08:33:40;;;;;;;22.85;19.20;;;6.20;99.90;;;;;;4967672;28;20137;-74
2023/12/12 08:36:06;;;;;;;23.70;18.98;;;6.20;99.90;;;;;;4946701;28;20035;-74
2023/12/12 08:38:32;;;;;;;20.55;18.55;;;6.30;99.90;;;;;;4965308;28;20043;-73
2023/12/12 08:40:59;;;;;;;22.83;17.33;;;6.30;99.90;;;;;;4968963;28;20031;-73
2023/12/12 08:43:25;;;;;;;21.05;17.90;;;6.40;99.90;;;;;;4969532;28;20481;-74
2023/12/12 08:45:52;;;;;;;20.00;18.08;;;6.40;99.90;;;;;;4962645;28;20066;-74
2023/12/12 08:48:18;;;;;;;30.70;23.48;;;6.40;99.90;;;;;;4968660;28;20027;-74
2023/12/12 08:50:44;;;;;;;33.78;23.40;;;6.50;99.90;;;;;;4953238;28;20038;-74
2023/12/12 08:53:10;;;;;;;20.08;16.30;;;6.50;99.90;;;;;;4953218;28;20055;-74
2023/12/12 08:55:36;;;;;;;20.35;15.43;;;6.50;99.90;;;;;;4968491;28;20073;-74
2023/12/12 08:58:04;;;;;;;23.33;12.90;;;6.60;99.90;;;;;;4968820;28;20460;-74
2023/12/12 09:00:30;;;;;;;18.90;14.55;;;6.70;99.90;;;;;;4964984;28;20027;-74
2023/12/12 09:02:56;;;;;;;15.93;12.75;;;6.80;99.90;;;;;;4966263;28;20042;-74
2023/12/12 09:05:21;;;;;;;17.95;13.32;;;6.80;99.90;;;;;;4961733;28;20397;-74
2023/12/12 09:07:47;;;;;;;15.18;13.60;;;6.80;99.90;;;;;;4965436;28;20569;-74
2023/12/12 09:10:13;;;;;;;19.10;13.75;;;6.90;99.90;;;;;;4965527;28;20027;-74
2023/12/12 09:12:39;;;;;;;19.38;13.25;;;6.90;99.90;;;;;;4964563;28;20023;-74
2023/12/12 09:15:08;;;;;;;21.48;13.48;;;7.00;99.90;;;;;;4962598;28;20034;-74
2023/12/12 09:17:33;;;;;;;18.58;14.65;;;7.10;99.90;;;;;;4948982;28;20045;-74
2023/12/12 09:20:02;;;;;;;21.27;14.48;;;7.20;99.90;;;;;;4964597;28;20027;-74
2023/12/12 09:22:30;;;;;;;37.97;20.67;;;7.20;99.90;;;;;;4965597;28;20023;-74
2023/12/12 09:24:59;;;;;;;31.77;23.85;;;7.30;99.90;;;;;;4964912;28;20110;-74
2023/12/12 09:27:24;;;;;;;32.40;22.45;;;7.20;99.90;;;;;;4964882;28;20374;-74
2023/12/12 09:29:50;;;;;;;43.15;24.13;;;7.20;99.90;;;;;;4961512;28;20034;-73
2023/12/12 09:32:16;;;;;;;32.00;22.85;;;7.20;99.90;;;;;;4968398;28;20474;-74
2023/12/12 09:34:42;;;;;;;41.03;24.52;;;7.20;99.90;;;;;;4945541;28;20027;-74
2023/12/12 09:37:07;;;;;;;45.58;22.92;;;7.20;99.90;;;;;;4963708;28;20027;-74
2023/12/12 09:39:33;;;;;;;35.53;22.42;;;7.30;99.90;;;;;;4947887;28;20027;-74
2023/12/12 09:42:00;;;;;;;36.95;23.02;;;7.30;99.90;;;;;;4966153;28;20453;-74
2023/12/12 09:44:31;;;;;;;30.83;20.98;;;7.30;99.90;;;;;;4947700;28;20026;-74
2023/12/12 09:46:57;;;;;;;26.52;20.17;;;7.40;99.90;;;;;;4965748;28;20019;-74
2023/12/12 09:49:24;;;;;;;28.77;21.48;;;7.40;99.90;;;;;;4960457;28;20023;-74
2023/12/12 09:51:52;;;;;;;28.95;22.38;;;7.40;99.90;;;;;;4965145;28;20101;-74
2023/12/12 09:54:18;;;;;;;30.05;21.30;;;7.40;99.90;;;;;;4964412;28;20027;-74
2023/12/12 09:56:46;;;;;;;45.10;22.25;;;7.40;99.90;;;;;;4965072;28;20059;-74
2023/12/12 09:59:12;;;;;;;37.08;22.45;;;7.40;99.90;;;;;;4964381;28;20038;-74
2023/12/12 10:01:40;;;;;;;35.45;20.30;;;7.50;99.90;;;;;;4964934;28;20031;-74
2023/12/12 10:04:08;;;;;;;26.73;19.02;;;7.50;99.90;;;;;;4956364;28;20101;-74
2023/12/12 10:06:40;;;;;;;25.58;19.30;;;7.50;99.90;;;;;;4968509;28;20113;-74
2023/12/12 10:09:06;;;;;;;;;;;7.50;99.90;;;;;;4972183;28;20074;-74
2023/12/12 10:11:32;;;;;;;35.83;23.00;;;7.60;99.90;;;;;;4966103;28;20150;-74
2023/12/12 10:14:00;;;;;;;29.13;21.02;;;7.60;99.90;;;;;;4967472;28;20058;-74
2023/12/12 10:16:27;;;;;;;21.17;18.17;;;7.60;99.90;;;;;;4968376;28;20026;-74
2023/12/12 10:18:53;;;;;;;23.42;20.27;;;7.70;99.90;;;;;;4950379;28;20055;-74
2023/12/12 10:21:20;;;;;;;22.23;18.63;;;7.80;99.90;;;;;;4967393;28;20078;-74
2023/12/12 10:23:54;;;;;;;22.73;17.55;;;7.80;99.90;;;;;;4971079;28;20093;-74
2023/12/12 10:26:29;;;;;;;21.75;18.15;;;7.80;99.90;;;;;;4968293;28;20493;-74
2023/12/12 10:29:00;;;;;;;23.88;18.35;;;7.80;99.90;;;;;;4960706;28;20343;-74
2023/12/12 10:31:26;;;;;;;31.83;21.85;;;7.80;99.90;;;;;;4956369;28;20478;-74
2023/12/12 10:33:53;;;;;;;26.48;20.58;;;7.80;99.90;;;;;;4950390;28;20161;-74
2023/12/12 10:36:19;;;;;;;25.30;20.75;;;7.80;99.90;;;;;;4957917;28;20093;-74
2023/12/12 10:38:44;;;;;;;21.33;19.02;;;7.80;99.90;;;;;;4968947;28;20508;-74
2023/12/12 10:41:14;;;;;;;32.38;23.35;;;7.80;99.90;;;;;;4966738;28;20488;-74
2023/12/12 10:43:42;;;;;;;32.47;19.45;;;7.90;99.90;;;;;;4971313;28;20023;-74
2023/12/12 10:46:19;;;;;;;32.90;19.13;;;8.00;99.90;;;;;;4967039;28;20027;-74
2023/12/12 10:48:52;;;;;;;27.63;18.60;;;8.10;99.90;;;;;;4963760;28;20525;-74
2023/12/12 10:51:18;;;;;;;31.08;19.35;;;8.10;99.90;;;;;;4950565;28;20023;-74
2023/12/12 10:53:46;;;;;;;27.42;17.92;;;8.20;99.90;;;;;;4968355;28;20020;-74
2023/12/12 10:56:14;;;;;;;29.65;18.45;;;8.30;99.90;;;;;;4949325;28;20568;-74
2023/12/12 10:58:42;;;;;;;30.17;18.38;;;8.40;99.90;;;;;;4970885;28;20110;-74
2023/12/12 11:01:13;;;;;;;24.50;18.60;;;8.50;99.90;;;;;;4949397;28;20322;-74
2023/12/12 11:03:40;;;;;;;21.50;18.58;;;8.60;97.20;;;;;;4970944;28;20062;-74
2023/12/12 11:06:08;;;;;;;24.80;19.33;;;8.70;92.40;;;;;;4969925;28;20093;-74
2023/12/12 11:08:35;;;;;;;23.00;17.60;;;8.80;87.60;;;;;;4969330;28;20024;-74
2023/12/12 11:11:04;;;;;;;31.75;19.40;;;8.90;76.50;;;;;;4955540;28;20493;-74
2023/12/12 11:13:33;;;;;;;28.67;18.67;;;8.90;90.90;;;;;;4968057;28;20019;-74
2023/12/12 11:16:01;;;;;;;28.13;20.10;;;9.00;93.10;;;;;;4966280;28;20043;-74
2023/12/12 11:18:26;;;;;;;33.95;19.85;;;9.10;85.10;;;;;;4969882;28;20401;-74
2023/12/12 11:20:53;;;;;;;27.83;20.65;;;9.10;76.60;;;;;;4961164;28;20027;-74
2023/12/12 11:23:49;;;;;;;32.88;21.38;;;9.20;63.30;;;;;;4971557;28;20437;-74
2023/12/12 11:26:16;;;;;;;35.83;22.13;;;9.20;84.80;;;;;;4966466;28;20058;-74
2023/12/12 11:28:45;;;;;;;33.08;23.45;;;9.20;65.90;;;;;;4972080;28;20031;-74
2023/12/12 11:31:19;;;;;;;38.55;24.58;;;9.20;90.20;;;;;;4965435;28;20095;-74
2023/12/12 11:34:00;;;;;;;38.80;22.25;;;9.30;91.80;;;;;;4971139;28;20058;-74
2023/12/12 11:36:27;;;;;;;30.90;22.75;;;9.20;91.60;;;;;;4950516;28;20035;-74
2023/12/12 11:38:54;;;;;;;29.20;20.35;;;9.20;95.00;;;;;;4973235;28;20022;-74
2023/12/12 11:41:20;;;;;;;26.55;19.92;;;9.30;89.50;;;;;;4966409;28;20489;-74
2023/12/12 11:43:46;;;;;;;26.17;19.80;;;9.30;93.10;;;;;;4956789;28;20063;-74
2023/12/12 11:46:19;;;;;;;24.45;20.02;;;9.30;93.10;;;;;;4948519;28;20030;-74
2023/12/12 11:48:45;;;;;;;24.08;18.42;;;9.40;86.40;;;;;;4973069;28;20062;-74
2023/12/12 11:51:33;;;;;;;28.35;19.08;;;9.40;66.30;;;;;;4965346;28;20058;-74
2023/12/12 11:53:59;;;;;;;28.20;19.13;;;9.50;41.60;;;;;;4963766;28;20027;-74
2023/12/12 11:56:25;;;;;;;35.20;19.33;;;9.50;46.20;;;;;;4967014;28;20039;-74
2023/12/12 11:58:53;;;;;;;23.73;18.85;;;9.60;62.40;;;;;;4965782;28;20040;-74
2023/12/12 12:01:21;;;;;;;34.78;18.13;;;9.60;45.40;;;;;;4965932;28;20085;-74
2023/12/12 12:03:47;;;;;;;23.70;16.95;;;9.60;37.60;;;;;;4965167;28;20119;-74
2023/12/12 12:06:13;;;;;;;29.60;17.65;;;9.60;15.50;;;;;;4965142;28;20541;-74
2023/12/12 12:08:39;;;;;;;42.80;18.48;;;9.60;31.40;;;;;;4955317;28;20058;-74
2023/12/12 12:11:04;;;;;;;23.05;15.63;;;9.60;37.60;;;;;;4960524;28;20058;-74
2023/12/12 12:13:40;;;;;;;21.15;15.65;;;9.60;22.80;;;;;;4969561;28;20030;-74
2023/12/12 12:16:07;;;;;;;18.23;14.68;;;9.60;48.50;;;;;;4948090;28;20031;-74
2023/12/12 12:18:33;;;;;;;23.23;15.32;;;9.60;56.50;;;;;;4955468;28;20031;-74
2023/12/12 12:20:59;;;;;;;18.70;15.60;;;9.60;67.50;;;;;;4963177;28;20074;-74
2023/12/12 12:23:25;;;;;;;20.63;15.32;;;9.60;62.40;;;;;;4983936;28;20420;-74
2023/12/12 12:25:50;;;;;;;23.92;15.40;;;9.60;68.70;;;;;;4964423;28;20042;-74
2023/12/12 12:28:16;;;;;;;21.88;16.67;;;9.60;81.90;;;;;;4952716;28;20035;-74
2023/12/12 12:30:46;;;;;;;19.15;15.85;;;9.60;82.20;;;;;;4965357;28;20027;-74
2023/12/12 12:33:13;;;;;;;20.83;16.65;;;9.60;87.20;;;;;;4967860;28;20496;-74
2023/12/12 12:35:50;;;;;;;24.55;15.93;;;9.60;68.70;;;;;;4955397;28;20509;-74
2023/12/12 12:38:26;;;;;;;21.17;15.27;;;9.70;51.30;;;;;;4964840;28;20019;-74
2023/12/12 12:40:52;;;;;;;25.80;16.17;;;9.70;61.80;;;;;;4962391;28;20387;-74
2023/12/12 12:43:19;;;;;;;27.25;16.27;;;9.70;66.10;;;;;;4968846;28;20365;-74